sensor_id;sensor_type;location;lat;lon;timestamp;pressure;altitude;pressure_sealevel;temperature;humidity
31337;BME280;22846;42.654;23.314;2022-11-18T00:00:49;93483.72;;;23.06;58.75
31337;BME280;22846;42.654;23.314;2022-11-18T00:03:15;93474.50;;;23.04;59.15
31337;BME280;22846;42.654;23.314;2022-11-18T00:05:41;93475.22;;;23.04;58.66
31337;BME280;22846;42.654;23.314;2022-11-18T00:08:06;93478.72;;;23.05;58.74
31337;BME280;22846;42.654;23.314;2022-11-18T00:10:32;93481.47;;;23.05;59.24
31337;BME280;22846;42.654;23.314;2022-11-18T00:12:57;93477.97;;;23.04;59.19
31337;BME280;22846;42.654;23.314;2022-11-18T00:15:41;93441.63;;;22.80;59.03
31337;BME280;22846;42.654;23.314;2022-11-18T00:18:06;93481.13;;;23.03;59.09
31337;BME280;22846;42.654;23.314;2022-11-18T00:20:35;93480.38;;;23.02;58.88
31337;BME280;22846;42.654;23.314;2022-11-18T00:23:00;93479.59;;;23.02;59.11
31337;BME280;22846;42.654;23.314;2022-11-18T00:25:27;93472.63;;;23.01;59.22
31337;BME280;22846;42.654;23.314;2022-11-18T00:27:53;93478.56;;;22.99;58.84
31337;BME280;22846;42.654;23.314;2022-11-18T00:30:18;93462.94;;;23.00;59.00
31337;BME280;22846;42.654;23.314;2022-11-18T00:32:43;93473.09;;;22.99;59.14
31337;BME280;22846;42.654;23.314;2022-11-18T00:35:09;93478.56;;;22.99;59.00
31337;BME280;22846;42.654;23.314;2022-11-18T00:37:34;93480.53;;;22.99;59.49
31337;BME280;22846;42.654;23.314;2022-11-18T00:40:00;93474.31;;;22.98;58.95
31337;BME280;22846;42.654;23.314;2022-11-18T00:42:25;93470.84;;;22.98;58.96
31337;BME280;22846;42.654;23.314;2022-11-18T00:45:09;93478.25;;;22.97;59.36
31337;BME280;22846;42.654;23.314;2022-11-18T00:47:34;93479.44;;;22.96;59.46
31337;BME280;22846;42.654;23.314;2022-11-18T00:50:00;93476.72;;;22.96;59.20
31337;BME280;22846;42.654;23.314;2022-11-18T00:52:25;93484.91;;;22.96;59.39
31337;BME280;22846;42.654;23.314;2022-11-18T00:54:51;93479.44;;;22.96;59.00
31337;BME280;22846;42.654;23.314;2022-11-18T00:57:17;93481.44;;;22.96;59.12
31337;BME280;22846;42.654;23.314;2022-11-18T00:59:43;93471.75;;;22.95;59.39
31337;BME280;22846;42.654;23.314;2022-11-18T01:02:08;93476.44;;;22.94;59.19
31337;BME280;22846;42.654;23.314;2022-11-18T01:04:33;93484.63;;;22.94;59.40
31337;BME280;22846;42.654;23.314;2022-11-18T01:06:59;93469.91;;;22.92;59.16
31337;BME280;22846;42.654;23.314;2022-11-18T01:09:24;93476.44;;;22.94;59.13
31337;BME280;22846;42.654;23.314;2022-11-18T01:11:49;93472.94;;;22.94;59.41
31337;BME280;22846;42.654;23.314;2022-11-18T01:14:34;93467.50;;;22.94;59.16
31337;BME280;22846;42.654;23.314;2022-11-18T01:16:59;93478.88;;;22.92;59.30
31337;BME280;22846;42.654;23.314;2022-11-18T01:19:25;93476.88;;;22.93;59.55
31337;BME280;22846;42.654;23.314;2022-11-18T01:21:50;93483.53;;;22.92;59.28
31337;BME280;22846;42.654;23.314;2022-11-18T01:24:16;93478.88;;;22.92;59.21
31337;BME280;22846;42.654;23.314;2022-11-18T01:26:41;93475.38;;;22.92;59.51
31337;BME280;22846;42.654;23.314;2022-11-18T01:29:07;93471.91;;;22.91;59.51
31337;BME280;22846;42.654;23.314;2022-11-18T01:31:33;93473.84;;;22.91;59.37
31337;BME280;22846;42.654;23.314;2022-11-18T01:33:58;93482.03;;;22.91;59.32
31337;BME280;22846;42.654;23.314;2022-11-18T01:36:26;93473.09;;;22.90;59.18
31337;BME280;22846;42.654;23.314;2022-11-18T01:38:52;93461.75;;;22.83;59.19
31337;BME280;22846;42.654;23.314;2022-11-18T01:41:21;93479.75;;;22.89;59.55
31337;BME280;22846;42.654;23.314;2022-11-18T01:43:48;93483.69;;;22.88;59.44
31337;BME280;22846;42.654;23.314;2022-11-18T01:46:14;93470.06;;;22.88;59.20
31337;BME280;22846;42.654;23.314;2022-11-18T01:48:40;93464.63;;;22.88;59.58
31337;BME280;22846;42.654;23.314;2022-11-18T01:51:11;93467.81;;;22.87;59.51
31337;BME280;22846;42.654;23.314;2022-11-18T01:53:41;93471.75;;;22.86;59.40
31337;BME280;22846;42.654;23.314;2022-11-18T01:56:12;93471.00;;;22.85;59.41
31337;BME280;22846;42.654;23.314;2022-11-18T01:58:45;93469.03;;;22.86;59.56
31337;BME280;22846;42.654;23.314;2022-11-18T02:01:14;93471.00;;;22.85;59.46
31337;BME280;22846;42.654;23.314;2022-11-18T02:03:40;93475.69;;;22.85;59.63
31337;BME280;22846;42.654;23.314;2022-11-18T02:06:07;93474.16;;;22.84;59.54
31337;BME280;22846;42.654;23.314;2022-11-18T02:08:35;93475.69;;;22.85;59.65
31337;BME280;22846;42.654;23.314;2022-11-18T02:11:02;93468.41;;;22.82;59.38
31337;BME280;22846;42.654;23.314;2022-11-18T02:13:28;93478.56;;;22.81;59.72
31337;BME280;22846;42.654;23.314;2022-11-18T02:16:10;93475.84;;;22.81;59.43
31337;BME280;22846;42.654;23.314;2022-11-18T02:18:46;93476.00;;;22.87;59.66
31337;BME280;22846;42.654;23.314;2022-11-18T02:21:41;93475.09;;;22.81;59.48
31337;BME280;22846;42.654;23.314;2022-11-18T02:27:32;93479.44;;;22.78;59.66
31337;BME280;22846;42.654;23.314;2022-11-18T02:30:06;93479.44;;;22.78;59.49
31337;BME280;22846;42.654;23.314;2022-11-18T02:32:54;93479.44;;;22.78;59.74
31337;BME280;22846;42.654;23.314;2022-11-18T02:35:30;93464.31;;;22.77;59.44
31337;BME280;22846;42.654;23.314;2022-11-18T02:40:49;93468.56;;;22.78;59.44
31337;BME280;22846;42.654;23.314;2022-11-18T02:43:22;93475.22;;;22.77;59.66
31337;BME280;22846;42.654;23.314;2022-11-18T02:45:52;93469.03;;;22.77;59.52
31337;BME280;22846;42.654;23.314;2022-11-18T02:48:22;93468.28;;;22.76;58.74
31337;BME280;22846;42.654;23.314;2022-11-18T02:50:49;93462.06;;;22.76;59.34
31337;BME280;22846;42.654;23.314;2022-11-18T02:53:18;93458.88;;;22.77;59.04
31337;BME280;22846;42.654;23.314;2022-11-18T02:55:44;93457.06;;;22.74;59.09
31337;BME280;22846;42.654;23.314;2022-11-18T02:58:12;93477.50;;;22.79;59.28
31337;BME280;22846;42.654;23.314;2022-11-18T03:00:39;93476.72;;;22.78;59.32
31337;BME280;22846;42.654;23.314;2022-11-18T03:03:27;93477.50;;;22.79;59.40
31337;BME280;22846;42.654;23.314;2022-11-18T03:08:27;93475.22;;;22.77;59.25
31337;BME280;22846;42.654;23.314;2022-11-18T03:14:04;93470.22;;;22.76;59.37
31337;BME280;22846;42.654;23.314;2022-11-18T03:16:35;93472.94;;;22.76;59.43
31337;BME280;22846;42.654;23.314;2022-11-18T03:24:32;93466.75;;;22.75;59.49
31337;BME280;22846;42.654;23.314;2022-11-18T03:27:17;93464.47;;;22.74;59.20
31337;BME280;22846;42.654;23.314;2022-11-18T03:29:51;93462.53;;;22.74;59.18
31337;BME280;22846;42.654;23.314;2022-11-18T03:32:27;93435.44;;;22.53;59.57
31337;BME280;22846;42.654;23.314;2022-11-18T03:35:03;93461.00;;;22.73;59.15
31337;BME280;22846;42.654;23.314;2022-11-18T03:37:32;93458.28;;;22.73;59.38
31337;BME280;22846;42.654;23.314;2022-11-18T03:40:11;93464.94;;;22.72;59.40
31337;BME280;22846;42.654;23.314;2022-11-18T03:42:43;93465.72;;;22.73;59.48
31337;BME280;22846;42.654;23.314;2022-11-18T03:45:50;93470.38;;;22.72;59.48
31337;BME280;22846;42.654;23.314;2022-11-18T03:48:26;93460.69;;;22.71;59.35
31337;BME280;22846;42.654;23.314;2022-11-18T03:51:02;93451.94;;;22.67;59.17
31337;BME280;22846;42.654;23.314;2022-11-18T03:53:31;93450.13;;;22.64;59.58
31337;BME280;22846;42.654;23.314;2022-11-18T03:56:05;93443.47;;;22.65;59.32
31337;BME280;22846;42.654;23.314;2022-11-18T03:58:39;93452.22;;;22.69;59.29
31337;BME280;22846;42.654;23.314;2022-11-18T04:01:28;93454.34;;;22.74;59.30
31337;BME280;22846;42.654;23.314;2022-11-18T04:03:56;93451.00;;;22.70;59.50
31337;BME280;22846;42.654;23.314;2022-11-18T04:06:32;93443.63;;;22.62;58.71
31337;BME280;22846;42.654;23.314;2022-11-18T04:09:05;93451.78;;;22.80;57.78
31337;BME280;22846;42.654;23.314;2022-11-18T04:11:40;93438.75;;;22.93;58.05
31337;BME280;22846;42.654;23.314;2022-11-18T04:14:26;93443.44;;;23.01;58.32
31337;BME280;22846;42.654;23.314;2022-11-18T04:16:51;93460.09;;;23.03;58.92
31337;BME280;22846;42.654;23.314;2022-11-18T04:19:20;93443.75;;;23.03;58.89
31337;BME280;22846;42.654;23.314;2022-11-18T04:21:49;93465.22;;;23.01;58.42
31337;BME280;22846;42.654;23.314;2022-11-18T04:24:14;93443.31;;;23.05;57.88
31337;BME280;22846;42.654;23.314;2022-11-18T04:26:40;93447.06;;;23.16;56.93
31337;BME280;22846;42.654;23.314;2022-11-18T04:29:05;93455.84;;;23.29;57.46
31337;BME280;22846;42.654;23.314;2022-11-18T04:31:31;93451.25;;;23.44;57.35
31337;BME280;22846;42.654;23.314;2022-11-18T04:33:56;93458.31;;;23.59;56.61
31337;BME280;22846;42.654;23.314;2022-11-18T04:36:22;93458.41;;;23.74;56.24
31337;BME280;22846;42.654;23.314;2022-11-18T04:38:47;93456.72;;;23.85;55.91
31337;BME280;22846;42.654;23.314;2022-11-18T04:41:13;93467.44;;;23.97;56.11
31337;BME280;22846;42.654;23.314;2022-11-18T04:43:38;93460.88;;;24.04;55.97
31337;BME280;22846;42.654;23.314;2022-11-18T04:46:04;93467.34;;;24.15;55.13
31337;BME280;22846;42.654;23.314;2022-11-18T04:48:29;93474.00;;;24.23;55.30
31337;BME280;22846;42.654;23.314;2022-11-18T04:51:02;93468.19;;;24.30;54.94
31337;BME280;22846;42.654;23.314;2022-11-18T04:53:28;93477.53;;;24.38;54.78
31337;BME280;22846;42.654;23.314;2022-11-18T04:55:53;93479.47;;;24.47;54.57
31337;BME280;22846;42.654;23.314;2022-11-18T04:58:18;93477.16;;;24.54;54.71
31337;BME280;22846;42.654;23.314;2022-11-18T05:00:44;93478.97;;;24.57;53.89
31337;BME280;22846;42.654;23.314;2022-11-18T05:03:09;93486.56;;;24.53;53.22
31337;BME280;22846;42.654;23.314;2022-11-18T05:05:35;93477.69;;;24.44;53.38
31337;BME280;22846;42.654;23.314;2022-11-18T05:08:00;93446.28;;;24.16;53.63
31337;BME280;22846;42.654;23.314;2022-11-18T05:10:25;93478.50;;;24.26;54.90
31337;BME280;22846;42.654;23.314;2022-11-18T05:12:51;93469.44;;;24.20;54.75
31337;BME280;22846;42.654;23.314;2022-11-18T05:15:20;93480.25;;;24.15;55.05
31337;BME280;22846;42.654;23.314;2022-11-18T05:17:48;93464.00;;;24.20;55.07
31337;BME280;22846;42.654;23.314;2022-11-18T05:20:14;93484.91;;;24.23;54.85
31337;BME280;22846;42.654;23.314;2022-11-18T05:22:40;93483.22;;;24.26;54.64
31337;BME280;22846;42.654;23.314;2022-11-18T05:25:06;93484.44;;;24.25;54.34
31337;BME280;22846;42.654;23.314;2022-11-18T05:27:32;93486.06;;;24.31;54.39
31337;BME280;22846;42.654;23.314;2022-11-18T05:29:58;93479.66;;;24.34;54.21
31337;BME280;22846;42.654;23.314;2022-11-18T05:32:24;93486.94;;;24.37;54.97
31337;BME280;22846;42.654;23.314;2022-11-18T05:34:49;93490.56;;;24.43;54.75
31337;BME280;22846;42.654;23.314;2022-11-18T05:37:15;93481.16;;;24.44;54.46
31337;BME280;22846;42.654;23.314;2022-11-18T05:39:40;93491.59;;;24.46;54.53
31337;BME280;22846;42.654;23.314;2022-11-18T05:42:06;93490.69;;;24.49;54.77
31337;BME280;22846;42.654;23.314;2022-11-18T05:44:50;93487.06;;;24.43;50.79
31337;BME280;22846;42.654;23.314;2022-11-18T05:47:17;93476.19;;;24.34;49.98
31337;BME280;22846;42.654;23.314;2022-11-18T05:49:43;93494.88;;;24.26;50.97
31337;BME280;22846;42.654;23.314;2022-11-18T05:52:08;93476.88;;;24.20;53.42
31337;BME280;22846;42.654;23.314;2022-11-18T05:54:34;93479.19;;;24.12;53.98
31337;BME280;22846;42.654;23.314;2022-11-18T05:56:59;93488.16;;;24.04;54.27
31337;BME280;22846;42.654;23.314;2022-11-18T05:59:25;93464.72;;;23.97;54.75
31337;BME280;22846;42.654;23.314;2022-11-18T06:02:11;93483.38;;;23.90;54.60
31337;BME280;22846;42.654;23.314;2022-11-18T06:04:42;93486.00;;;23.85;55.24
31337;BME280;22846;42.654;23.314;2022-11-18T06:07:38;93478.13;;;23.78;55.85
31337;BME280;22846;42.654;23.314;2022-11-18T06:10:06;93484.16;;;23.73;56.10
31337;BME280;22846;42.654;23.314;2022-11-18T06:12:38;93474.38;;;23.66;55.32
31337;BME280;22846;42.654;23.314;2022-11-18T06:15:32;93476.19;;;23.60;54.52
31337;BME280;22846;42.654;23.314;2022-11-18T06:18:28;93456.38;;;23.51;55.59
31337;BME280;22846;42.654;23.314;2022-11-18T06:20:58;93475.75;;;23.53;54.81
31337;BME280;22846;42.654;23.314;2022-11-18T06:23:26;93480.31;;;23.47;55.58
31337;BME280;22846;42.654;23.314;2022-11-18T06:28:18;93466.25;;;23.39;55.54
31337;BME280;22846;42.654;23.314;2022-11-18T06:30:44;93471.72;;;23.39;54.87
31337;BME280;22846;42.654;23.314;2022-11-18T06:33:10;93470.19;;;23.38;55.07
31337;BME280;22846;42.654;23.314;2022-11-18T06:35:35;93466.41;;;23.36;57.12
31337;BME280;22846;42.654;23.314;2022-11-18T06:38:00;93477.03;;;23.34;56.58
31337;BME280;22846;42.654;23.314;2022-11-18T06:40:26;93462.34;;;23.31;55.86
31337;BME280;22846;42.654;23.314;2022-11-18T06:42:51;93467.50;;;23.29;57.19
31337;BME280;22846;42.654;23.314;2022-11-18T06:45:35;93471.88;;;23.27;57.19
31337;BME280;22846;42.654;23.314;2022-11-18T06:48:01;93468.38;;;23.26;57.53
31337;BME280;22846;42.654;23.314;2022-11-18T06:50:26;93474.78;;;23.23;57.77
31337;BME280;22846;42.654;23.314;2022-11-18T06:52:52;93471.28;;;23.23;57.75
31337;BME280;22846;42.654;23.314;2022-11-18T06:55:18;93473.69;;;23.21;57.33
31337;BME280;22846;42.654;23.314;2022-11-18T06:57:44;93482.34;;;23.19;57.02
31337;BME280;22846;42.654;23.314;2022-11-18T07:00:10;93472.66;;;23.18;57.68
31337;BME280;22846;42.654;23.314;2022-11-18T07:02:35;93478.56;;;23.17;57.38
31337;BME280;22846;42.654;23.314;2022-11-18T07:05:02;93463.75;;;23.09;56.62
31337;BME280;22846;42.654;23.314;2022-11-18T07:07:27;93471.59;;;23.16;57.15
31337;BME280;22846;42.654;23.314;2022-11-18T07:09:53;93475.53;;;23.15;56.77
31337;BME280;22846;42.654;23.314;2022-11-18T07:12:18;93477.66;;;23.11;56.15
31337;BME280;22846;42.654;23.314;2022-11-18T07:14:44;93470.56;;;23.13;56.33
31337;BME280;22846;42.654;23.314;2022-11-18T07:17:09;93473.72;;;23.12;56.10
31337;BME280;22846;42.654;23.314;2022-11-18T07:19:34;93469.50;;;23.11;55.87
31337;BME280;22846;42.654;23.314;2022-11-18T07:22:00;93433.94;;;23.06;56.53
31337;BME280;22846;42.654;23.314;2022-11-18T07:24:25;93441.00;;;23.12;56.68
31337;BME280;22846;42.654;23.314;2022-11-18T07:26:54;93430.13;;;23.12;57.05
31337;BME280;22846;42.654;23.314;2022-11-18T07:29:19;93451.00;;;23.15;56.65
31337;BME280;22846;42.654;23.314;2022-11-18T07:31:44;93436.47;;;23.18;57.18
31337;BME280;22846;42.654;23.314;2022-11-18T07:34:11;93433.75;;;23.18;56.21
31337;BME280;22846;42.654;23.314;2022-11-18T07:36:36;93447.22;;;23.21;56.12
31337;BME280;22846;42.654;23.314;2022-11-18T07:39:04;93411.31;;;23.23;56.41
31337;BME280;22846;42.654;23.314;2022-11-18T07:41:30;93421.78;;;23.24;56.51
31337;BME280;22846;42.654;23.314;2022-11-18T07:43:57;93431.91;;;23.24;56.45
31337;BME280;22846;42.654;23.314;2022-11-18T07:48:52;93419.06;;;23.15;56.77
31337;BME280;22846;42.654;23.314;2022-11-18T07:51:20;93451.91;;;23.21;56.35
31337;BME280;22846;42.654;23.314;2022-11-18T07:53:46;93441.00;;;23.21;56.53
31337;BME280;22846;42.654;23.314;2022-11-18T07:56:13;93446.16;;;23.19;56.46
31337;BME280;22846;42.654;23.314;2022-11-18T07:58:39;93447.38;;;23.18;56.65
31337;BME280;22846;42.654;23.314;2022-11-18T08:01:07;93471.13;;;23.17;57.19
31337;BME280;22846;42.654;23.314;2022-11-18T08:03:32;93476.31;;;23.15;56.30
31337;BME280;22846;42.654;23.314;2022-11-18T08:05:58;93480.97;;;23.15;57.35
31337;BME280;22846;42.654;23.314;2022-11-18T08:08:24;93487.34;;;23.12;56.66
31337;BME280;22846;42.654;23.314;2022-11-18T08:10:50;93485.84;;;23.11;56.84
31337;BME280;22846;42.654;23.314;2022-11-18T08:13:15;93495.22;;;23.10;57.06
31337;BME280;22846;42.654;23.314;2022-11-18T08:15:41;93477.22;;;23.04;56.90
31337;BME280;22846;42.654;23.314;2022-11-18T08:18:07;93466.91;;;23.08;56.26
31337;BME280;22846;42.654;23.314;2022-11-18T08:20:34;93457.97;;;23.07;57.22
31337;BME280;22846;42.654;23.314;2022-11-18T08:22:59;93459.19;;;23.06;56.76
31337;BME280;22846;42.654;23.314;2022-11-18T08:25:24;93448.28;;;22.97;56.94
31337;BME280;22846;42.654;23.314;2022-11-18T08:27:50;93450.84;;;23.01;56.62
31337;BME280;22846;42.654;23.314;2022-11-18T08:30:16;93448.00;;;23.04;56.81
31337;BME280;22846;42.654;23.314;2022-11-18T08:32:41;93447.69;;;23.02;56.99
31337;BME280;22846;42.654;23.314;2022-11-18T08:35:07;93437.06;;;22.95;56.57
31337;BME280;22846;42.654;23.314;2022-11-18T08:37:32;93439.19;;;23.00;56.54
31337;BME280;22846;42.654;23.314;2022-11-18T08:39:58;93431.03;;;23.00;56.06
31337;BME280;22846;42.654;23.314;2022-11-18T08:42:23;93425.56;;;23.00;56.77
31337;BME280;22846;42.654;23.314;2022-11-18T08:44:50;93426.78;;;22.99;56.50
31337;BME280;22846;42.654;23.314;2022-11-18T08:47:15;93424.81;;;23.00;57.03
31337;BME280;22846;42.654;23.314;2022-11-18T08:49:40;93424.06;;;22.99;56.65
31337;BME280;22846;42.654;23.314;2022-11-18T08:52:07;93401.97;;;22.97;56.90
31337;BME280;22846;42.654;23.314;2022-11-18T08:54:34;93395.59;;;23.00;57.02
31337;BME280;22846;42.654;23.314;2022-11-18T08:56:59;93411.19;;;23.00;57.13
31337;BME280;22846;42.654;23.314;2022-11-18T08:59:25;93387.13;;;22.98;56.21
31337;BME280;22846;42.654;23.314;2022-11-18T09:01:51;93383.19;;;22.99;56.45
31337;BME280;22846;42.654;23.314;2022-11-18T09:04:17;93376.53;;;23.00;57.38
31337;BME280;22846;42.654;23.314;2022-11-18T09:06:42;93376.06;;;23.02;57.20
31337;BME280;22846;42.654;23.314;2022-11-18T09:09:08;93347.16;;;22.95;56.27
31337;BME280;22846;42.654;23.314;2022-11-18T09:11:34;93349.00;;;22.98;56.14
31337;BME280;22846;42.654;23.314;2022-11-18T09:13:59;93357.63;;;23.06;55.76
31337;BME280;22846;42.654;23.314;2022-11-18T09:16:27;93364.13;;;23.08;56.18
31337;BME280;22846;42.654;23.314;2022-11-18T09:18:54;93361.72;;;23.10;56.15
31337;BME280;22846;42.654;23.314;2022-11-18T09:21:20;93360.50;;;23.11;55.75
31337;BME280;22846;42.654;23.314;2022-11-18T09:23:46;93360.78;;;23.13;55.91
31337;BME280;22846;42.654;23.314;2022-11-18T09:26:14;93340.78;;;23.16;55.63
31337;BME280;22846;42.654;23.314;2022-11-18T09:28:41;93351.53;;;23.19;55.75
31337;BME280;22846;42.654;23.314;2022-11-18T09:31:08;93358.97;;;23.19;55.52
31337;BME280;22846;42.654;23.314;2022-11-18T09:33:35;93357.84;;;23.25;55.69
31337;BME280;22846;42.654;23.314;2022-11-18T09:36:02;93337.28;;;23.24;55.90
31337;BME280;22846;42.654;23.314;2022-11-18T09:38:29;93351.03;;;23.30;55.80
31337;BME280;22846;42.654;23.314;2022-11-18T09:48:48;93321.47;;;23.37;55.78
31337;BME280;22846;42.654;23.314;2022-11-18T09:51:38;93289.81;;;23.40;55.70
31337;BME280;22846;42.654;23.314;2022-11-18T09:54:10;93280.28;;;23.35;55.34
31337;BME280;22846;42.654;23.314;2022-11-18T09:56:38;93288.59;;;23.41;55.57
31337;BME280;22846;42.654;23.314;2022-11-18T09:59:04;93291.63;;;23.43;55.38
31337;BME280;22846;42.654;23.314;2022-11-18T10:01:29;93299.16;;;23.48;55.21
31337;BME280;22846;42.654;23.314;2022-11-18T10:03:55;93285.06;;;23.49;55.15
31337;BME280;22846;42.654;23.314;2022-11-18T10:06:26;93303.69;;;23.51;55.54
31337;BME280;22846;42.654;23.314;2022-11-18T10:09:11;93300.03;;;23.54;55.30
31337;BME280;22846;42.654;23.314;2022-11-18T10:12:07;93290.66;;;23.55;55.27
31337;BME280;22846;42.654;23.314;2022-11-18T10:20:57;93287.75;;;23.58;55.23
31337;BME280;22846;42.654;23.314;2022-11-18T10:23:34;93279.09;;;23.60;55.07
31337;BME280;22846;42.654;23.314;2022-11-18T10:26:03;93263.03;;;23.62;54.92
31337;BME280;22846;42.654;23.314;2022-11-18T10:28:29;93255.59;;;23.62;54.55
31337;BME280;22846;42.654;23.314;2022-11-18T10:31:08;93263.78;;;23.62;54.83
31337;BME280;22846;42.654;23.314;2022-11-18T10:33:35;93271.47;;;23.64;54.60
31337;BME280;22846;42.654;23.314;2022-11-18T10:36:09;93271.03;;;23.65;54.62
31337;BME280;22846;42.654;23.314;2022-11-18T10:38:36;93264.38;;;23.66;54.89
31337;BME280;22846;42.654;23.314;2022-11-18T10:41:04;93247.53;;;23.68;54.34
31337;BME280;22846;42.654;23.314;2022-11-18T10:43:55;93244.06;;;23.67;54.39
31337;BME280;22846;42.654;23.314;2022-11-18T10:46:34;93264.63;;;23.68;54.54
31337;BME280;22846;42.654;23.314;2022-11-18T10:52:05;93236.13;;;23.69;54.56
31337;BME280;22846;42.654;23.314;2022-11-18T10:54:30;93220.06;;;23.71;54.29
31337;BME280;22846;42.654;23.314;2022-11-18T10:57:03;93219.03;;;23.69;54.18
31337;BME280;22846;42.654;23.314;2022-11-18T11:02:13;93210.44;;;23.61;54.55
31337;BME280;22846;42.654;23.314;2022-11-18T11:04:40;93219.50;;;23.67;54.59
31337;BME280;22846;42.654;23.314;2022-11-18T11:12:28;93229.34;;;23.65;54.46
31337;BME280;22846;42.654;23.314;2022-11-18T11:14:56;93215.91;;;23.61;54.33
31337;BME280;22846;42.654;23.314;2022-11-18T11:17:38;93210.00;;;23.63;54.24
31337;BME280;22846;42.654;23.314;2022-11-18T11:22:39;93191.94;;;23.65;54.53
31337;BME280;22846;42.654;23.314;2022-11-18T11:25:17;93193.78;;;23.59;54.21
31337;BME280;22846;42.654;23.314;2022-11-18T11:28:11;93199.34;;;23.65;54.17
31337;BME280;22846;42.654;23.314;2022-11-18T11:31:05;93201.81;;;23.63;54.52
31337;BME280;22846;42.654;23.314;2022-11-18T11:33:51;93196.38;;;23.63;54.46
31337;BME280;22846;42.654;23.314;2022-11-18T11:39:04;93172.94;;;23.56;54.30
31337;BME280;22846;42.654;23.314;2022-11-18T11:52:45;93168.69;;;23.55;54.42
31337;BME280;22846;42.654;23.314;2022-11-18T12:00:45;93163.91;;;23.50;54.88
31337;BME280;22846;42.654;23.314;2022-11-18T12:05:48;93164.63;;;23.51;54.60
31337;BME280;22846;42.654;23.314;2022-11-18T12:08:23;93166.31;;;23.48;54.30
31337;BME280;22846;42.654;23.314;2022-11-18T12:11:02;93178.44;;;23.47;54.70
31337;BME280;22846;42.654;23.314;2022-11-18T12:16:57;93170.75;;;23.46;54.61
31337;BME280;22846;42.654;23.314;2022-11-18T12:19:25;93169.22;;;23.45;54.61
31337;BME280;22846;42.654;23.314;2022-11-18T12:21:52;93162.28;;;23.44;54.65
31337;BME280;22846;42.654;23.314;2022-11-18T12:24:28;93160.00;;;23.42;54.87
31337;BME280;22846;42.654;23.314;2022-11-18T12:27:00;93142.88;;;23.42;54.18
31337;BME280;22846;42.654;23.314;2022-11-18T12:32:43;93127.75;;;23.41;54.51
31337;BME280;22846;42.654;23.314;2022-11-18T12:40:09;93144.59;;;23.39;54.79
31337;BME280;22846;42.654;23.314;2022-11-18T12:42:44;93139.56;;;23.38;54.68
31337;BME280;22846;42.654;23.314;2022-11-18T12:45:54;93125.22;;;23.37;54.91
31337;BME280;22846;42.654;23.314;2022-11-18T12:48:40;93127.94;;;23.37;54.79
31337;BME280;22846;42.654;23.314;2022-11-18T12:53:45;93112.06;;;23.36;54.96
31337;BME280;22846;42.654;23.314;2022-11-18T12:58:54;93086.66;;;23.30;54.84
31337;BME280;22846;42.654;23.314;2022-11-18T13:01:22;93088.44;;;23.33;55.00
31337;BME280;22846;42.654;23.314;2022-11-18T13:03:48;93096.63;;;23.33;54.71
31337;BME280;22846;42.654;23.314;2022-11-18T13:06:27;93076.09;;;23.23;54.85
31337;BME280;22846;42.654;23.314;2022-11-18T13:08:57;93071.78;;;23.31;55.05
31337;BME280;22846;42.654;23.314;2022-11-18T13:11:24;93072.28;;;23.29;54.79
31337;BME280;22846;42.654;23.314;2022-11-18T13:14:21;93041.56;;;23.29;55.04
31337;BME280;22846;42.654;23.314;2022-11-18T13:20:31;93077.91;;;23.26;54.89
31337;BME280;22846;42.654;23.314;2022-11-18T13:25:54;93083.84;;;23.24;55.19
31337;BME280;22846;42.654;23.314;2022-11-18T13:33:41;93067.94;;;23.23;54.52
31337;BME280;22846;42.654;23.314;2022-11-18T13:36:24;93032.13;;;23.15;54.58
31337;BME280;22846;42.654;23.314;2022-11-18T13:39:05;93024.13;;;23.12;54.47
31337;BME280;22846;42.654;23.314;2022-11-18T13:41:33;93028.75;;;23.20;54.55
31337;BME280;22846;42.654;23.314;2022-11-18T13:44:21;93031.94;;;23.19;54.60
31337;BME280;22846;42.654;23.314;2022-11-18T13:47:28;93054.50;;;23.19;54.39
31337;BME280;22846;42.654;23.314;2022-11-18T13:50:51;93051.03;;;23.19;54.65
31337;BME280;22846;42.654;23.314;2022-11-18T13:55:56;93071.94;;;23.13;54.45
31337;BME280;22846;42.654;23.314;2022-11-18T13:58:30;93067.09;;;23.17;54.42
31337;BME280;22846;42.654;23.314;2022-11-18T14:01:02;93053.16;;;23.15;54.64
31337;BME280;22846;42.654;23.314;2022-11-18T14:03:32;93030.16;;;23.16;54.42
31337;BME280;22846;42.654;23.314;2022-11-18T14:05:59;93039.06;;;23.16;54.33
31337;BME280;22846;42.654;23.314;2022-11-18T14:08:33;93024.41;;;23.14;54.63
31337;BME280;22846;42.654;23.314;2022-11-18T14:10:59;93019.72;;;23.14;54.57
31337;BME280;22846;42.654;23.314;2022-11-18T14:13:31;93038.03;;;23.14;54.20
31337;BME280;22846;42.654;23.314;2022-11-18T14:18:49;93044.69;;;23.13;54.60
31337;BME280;22846;42.654;23.314;2022-11-18T14:21:30;93048.63;;;23.12;54.47
31337;BME280;22846;42.654;23.314;2022-11-18T14:23:56;93053.34;;;23.11;54.60
31337;BME280;22846;42.654;23.314;2022-11-18T14:26:35;93042.91;;;23.10;54.58
31337;BME280;22846;42.654;23.314;2022-11-18T14:29:15;93039.44;;;23.09;54.39
31337;BME280;22846;42.654;23.314;2022-11-18T14:34:35;93014.91;;;23.09;54.43
31337;BME280;22846;42.654;23.314;2022-11-18T14:37:05;93032.66;;;23.05;54.55
31337;BME280;22846;42.654;23.314;2022-11-18T14:39:33;93051.53;;;23.08;54.41
31337;BME280;22846;42.654;23.314;2022-11-18T14:42:01;93043.84;;;23.07;54.45
31337;BME280;22846;42.654;23.314;2022-11-18T14:44:27;93066.38;;;23.08;54.61
31337;BME280;22846;42.654;23.314;2022-11-18T14:47:01;93012.38;;;23.06;54.39
31337;BME280;22846;42.654;23.314;2022-11-18T14:49:28;93023.25;;;23.06;54.43
31337;BME280;22846;42.654;23.314;2022-11-18T14:51:55;93055.22;;;23.06;54.48
31337;BME280;22846;42.654;23.314;2022-11-18T14:54:22;93038.88;;;23.06;54.27